バンダルスリブガワン の空港の天気 - METARとTAF

ブルネイ国際空港 ( WBSB / BWN ) - ブルネイ バンダルスリブガワン
飛行場実況気象(Metar)
観測時間09/23 07:00 BNT (09/22 23:00 UTC)
風向・風速東 2m/s
視程10km以上
天気現象弱い雨
少しの雲 雲底高度 90m
全天の8割程度の雲 雲底高度 4570m
気温24℃
湿度100%
気圧1011hPa
METARWBSB 222300Z 08003KT 9999 -RA FEW003 BKN150 24/24 Q1011 NOSIG
過去の天気等 Google飛行場航空写真 Wunderground天気予報

過去48時間のMETAR

飛行場予報(TAF)
発表時間: 9/23 01:00 BNT (9/22 17:00 UTC)
予報対象時間: 23日2時 BNT ~ 24日8時 BNT
風向・風速南南西 2m/s
視程10km以上
全天の4割程度の雲 雲底高度 430m
少しの積乱雲 雲底高度 460m
23日4時 BNT ~ 23日7時 BNT に一時的に
視程7000m
天気現象しゅう雨 雷雨
23日11時 BNT ~ 23日13時 BNT に徐々に
風向・風速西北西 5m/s
全天の4割程度の雲 雲底高度 460m
少しの積乱雲 雲底高度 490m
TAF WBSB 221700Z 2218/2400 20003KT 9999 SCT014 FEW015CB
TEMPO 2220/2223 7000 SHRA TSRA
BECMG 2303/2305 30010KT SCT015 FEW016CB